sensor_id;sensor_type;location;lat;lon;timestamp;P1;durP1;ratioP1;P2;durP2;ratioP2
67090;SDS011;54007;55.818;49.058;2023-11-19T10:06:27;12.25;;;4.70;;
67090;SDS011;54007;55.818;49.058;2023-11-19T10:08:53;21.65;;;5.33;;
67090;SDS011;54007;55.818;49.058;2023-11-19T10:11:19;11.55;;;4.30;;
67090;SDS011;54007;55.818;49.058;2023-11-19T10:13:45;15.00;;;4.90;;
67090;SDS011;54007;55.818;49.058;2023-11-19T10:16:13;20.57;;;4.83;;
67090;SDS011;54007;55.818;49.058;2023-11-19T10:18:49;19.35;;;5.45;;
67090;SDS011;54007;55.818;49.058;2023-11-19T10:21:14;16.63;;;5.13;;
67090;SDS011;54007;55.818;49.058;2023-11-19T10:23:50;11.73;;;5.03;;
67090;SDS011;54007;55.818;49.058;2023-11-19T10:26:15;13.98;;;4.70;;
67090;SDS011;54007;55.818;49.058;2023-11-19T10:28:41;18.37;;;4.67;;
67090;SDS011;54007;55.818;49.058;2023-11-19T10:31:09;17.85;;;5.15;;
67090;SDS011;54007;55.818;49.058;2023-11-19T10:33:35;14.38;;;5.00;;
67090;SDS011;54007;55.818;49.058;2023-11-19T10:36:01;19.00;;;4.70;;
67090;SDS011;54007;55.818;49.058;2023-11-19T10:38:27;21.65;;;5.30;;
67090;SDS011;54007;55.818;49.058;2023-11-19T10:40:53;18.87;;;6.00;;
67090;SDS011;54007;55.818;49.058;2023-11-19T10:43:18;28.20;;;5.80;;
67090;SDS011;54007;55.818;49.058;2023-11-19T10:45:44;19.45;;;5.67;;
67090;SDS011;54007;55.818;49.058;2023-11-19T10:48:10;16.77;;;5.62;;
67090;SDS011;54007;55.818;49.058;2023-11-19T10:50:37;16.35;;;5.47;;
67090;SDS011;54007;55.818;49.058;2023-11-19T10:53:02;21.97;;;7.33;;
67090;SDS011;54007;55.818;49.058;2023-11-19T10:55:28;16.70;;;4.93;;
67090;SDS011;54007;55.818;49.058;2023-11-19T10:57:54;14.87;;;5.30;;
67090;SDS011;54007;55.818;49.058;2023-11-19T11:00:19;14.20;;;5.28;;
67090;SDS011;54007;55.818;49.058;2023-11-19T11:02:45;15.83;;;4.80;;
67090;SDS011;54007;55.818;49.058;2023-11-19T11:05:12;24.45;;;6.15;;
67090;SDS011;54007;55.818;49.058;2023-11-19T11:07:37;11.40;;;4.43;;
67090;SDS011;54007;55.818;49.058;2023-11-19T11:10:03;16.00;;;4.83;;
67090;SDS011;54007;55.818;49.058;2023-11-19T11:12:32;14.13;;;4.62;;
67090;SDS011;54007;55.818;49.058;2023-11-19T11:14:58;21.00;;;5.05;;
67090;SDS011;54007;55.818;49.058;2023-11-19T11:17:24;13.35;;;5.15;;
67090;SDS011;54007;55.818;49.058;2023-11-19T11:19:53;13.80;;;4.97;;
67090;SDS011;54007;55.818;49.058;2023-11-19T11:22:19;16.30;;;4.43;;
67090;SDS011;54007;55.818;49.058;2023-11-19T12:03:48;17.00;;;4.20;;
67090;SDS011;54007;55.818;49.058;2023-11-19T12:06:14;12.88;;;3.90;;
67090;SDS011;54007;55.818;49.058;2023-11-19T12:08:40;10.90;;;3.77;;
67090;SDS011;54007;55.818;49.058;2023-11-19T12:11:06;18.77;;;4.00;;
67090;SDS011;54007;55.818;49.058;2023-11-19T12:13:54;24.47;;;4.37;;
67090;SDS011;54007;55.818;49.058;2023-11-19T12:18:27;16.07;;;4.10;;
67090;SDS011;54007;55.818;49.058;2023-11-19T12:20:52;14.07;;;4.37;;
67090;SDS011;54007;55.818;49.058;2023-11-19T12:23:17;12.35;;;3.65;;
67090;SDS011;54007;55.818;49.058;2023-11-19T12:25:43;24.75;;;7.70;;
67090;SDS011;54007;55.818;49.058;2023-11-19T12:28:13;17.63;;;4.30;;
67090;SDS011;54007;55.818;49.058;2023-11-19T12:30:38;20.00;;;5.00;;
67090;SDS011;54007;55.818;49.058;2023-11-19T12:33:10;14.55;;;4.53;;
67090;SDS011;54007;55.818;49.058;2023-11-19T12:35:42;16.87;;;6.40;;
67090;SDS011;54007;55.818;49.058;2023-11-19T12:38:21;16.77;;;6.35;;
67090;SDS011;54007;55.818;49.058;2023-11-19T12:40:44;23.20;;;6.75;;
67090;SDS011;54007;55.818;49.058;2023-11-19T12:43:21;22.10;;;6.80;;
67090;SDS011;54007;55.818;49.058;2023-11-19T12:45:47;33.18;;;7.35;;
67090;SDS011;54007;55.818;49.058;2023-11-19T12:48:13;23.77;;;6.80;;
67090;SDS011;54007;55.818;49.058;2023-11-19T12:50:57;20.62;;;6.47;;
67090;SDS011;54007;55.818;49.058;2023-11-19T12:53:23;26.50;;;5.70;;
67090;SDS011;54007;55.818;49.058;2023-11-19T12:55:48;16.62;;;4.80;;
67090;SDS011;54007;55.818;49.058;2023-11-19T12:58:34;21.85;;;5.75;;
67090;SDS011;54007;55.818;49.058;2023-11-19T13:00:59;20.90;;;5.75;;
67090;SDS011;54007;55.818;49.058;2023-11-19T13:03:35;16.15;;;4.87;;
67090;SDS011;54007;55.818;49.058;2023-11-19T13:06:09;15.32;;;4.80;;
67090;SDS011;54007;55.818;49.058;2023-11-19T13:08:47;15.50;;;4.57;;
67090;SDS011;54007;55.818;49.058;2023-11-19T13:11:10;15.88;;;4.75;;
67090;SDS011;54007;55.818;49.058;2023-11-19T13:13:57;26.75;;;5.47;;
67090;SDS011;54007;55.818;49.058;2023-11-19T13:16:04;24.33;;;5.47;;
67090;SDS011;54007;55.818;49.058;2023-11-19T13:18:30;21.75;;;5.00;;
67090;SDS011;54007;55.818;49.058;2023-11-19T13:20:56;16.97;;;4.30;;
67090;SDS011;54007;55.818;49.058;2023-11-19T13:23:22;24.10;;;4.47;;
67090;SDS011;54007;55.818;49.058;2023-11-19T13:25:48;20.02;;;4.35;;
67090;SDS011;54007;55.818;49.058;2023-11-19T13:28:14;16.62;;;4.45;;
67090;SDS011;54007;55.818;49.058;2023-11-19T13:30:40;26.37;;;4.90;;
67090;SDS011;54007;55.818;49.058;2023-11-19T13:33:09;24.72;;;4.72;;
67090;SDS011;54007;55.818;49.058;2023-11-19T13:35:32;14.55;;;5.08;;
67090;SDS011;54007;55.818;49.058;2023-11-19T13:37:58;25.17;;;6.13;;
67090;SDS011;54007;55.818;49.058;2023-11-19T13:40:24;25.77;;;8.73;;
67090;SDS011;54007;55.818;49.058;2023-11-19T13:42:50;28.12;;;9.45;;
67090;SDS011;54007;55.818;49.058;2023-11-19T13:45:15;32.23;;;8.87;;
67090;SDS011;54007;55.818;49.058;2023-11-19T13:47:42;30.80;;;8.60;;
67090;SDS011;54007;55.818;49.058;2023-11-19T13:50:10;30.37;;;8.78;;
67090;SDS011;54007;55.818;49.058;2023-11-19T13:52:33;26.47;;;7.37;;
67090;SDS011;54007;55.818;49.058;2023-11-19T13:54:59;21.55;;;7.58;;
67090;SDS011;54007;55.818;49.058;2023-11-19T13:57:25;45.28;;;7.58;;
67090;SDS011;54007;55.818;49.058;2023-11-19T13:59:57;28.42;;;7.70;;
67090;SDS011;54007;55.818;49.058;2023-11-19T14:02:23;32.85;;;7.78;;
67090;SDS011;54007;55.818;49.058;2023-11-19T14:04:48;31.60;;;8.08;;
67090;SDS011;54007;55.818;49.058;2023-11-19T14:07:14;29.40;;;7.58;;
67090;SDS011;54007;55.818;49.058;2023-11-19T14:09:42;20.70;;;7.33;;
67090;SDS011;54007;55.818;49.058;2023-11-19T14:12:07;24.53;;;8.13;;
67090;SDS011;54007;55.818;49.058;2023-11-19T14:14:33;22.30;;;7.97;;
67090;SDS011;54007;55.818;49.058;2023-11-19T14:17:01;25.37;;;8.35;;
67090;SDS011;54007;55.818;49.058;2023-11-19T14:19:26;29.27;;;8.60;;
67090;SDS011;54007;55.818;49.058;2023-11-19T14:21:52;26.50;;;8.00;;
67090;SDS011;54007;55.818;49.058;2023-11-19T14:24:18;42.70;;;9.10;;
67090;SDS011;54007;55.818;49.058;2023-11-19T14:26:45;33.40;;;9.30;;
67090;SDS011;54007;55.818;49.058;2023-11-19T14:29:09;44.00;;;9.50;;
67090;SDS011;54007;55.818;49.058;2023-11-19T14:31:35;32.67;;;7.42;;
67090;SDS011;54007;55.818;49.058;2023-11-19T14:34:01;27.00;;;7.30;;
67090;SDS011;54007;55.818;49.058;2023-11-19T14:36:27;25.75;;;7.05;;
67090;SDS011;54007;55.818;49.058;2023-11-19T14:38:53;22.70;;;6.43;;
67090;SDS011;54007;55.818;49.058;2023-11-19T14:41:19;36.15;;;6.65;;
67090;SDS011;54007;55.818;49.058;2023-11-19T14:43:44;24.05;;;6.80;;
67090;SDS011;54007;55.818;49.058;2023-11-19T14:46:10;31.50;;;7.17;;
67090;SDS011;54007;55.818;49.058;2023-11-19T14:48:36;28.10;;;8.28;;
67090;SDS011;54007;55.818;49.058;2023-11-19T18:37:00;58.43;;;9.47;;
67090;SDS011;54007;55.818;49.058;2023-11-19T18:39:25;59.20;;;9.00;;
67090;SDS011;54007;55.818;49.058;2023-11-19T18:41:51;73.60;;;10.08;;
67090;SDS011;54007;55.818;49.058;2023-11-19T18:44:17;53.70;;;11.27;;
67090;SDS011;54007;55.818;49.058;2023-11-19T18:46:43;52.93;;;9.45;;
67090;SDS011;54007;55.818;49.058;2023-11-19T18:49:09;66.02;;;10.10;;
67090;SDS011;54007;55.818;49.058;2023-11-19T18:51:35;50.57;;;9.20;;
67090;SDS011;54007;55.818;49.058;2023-11-19T18:54:01;46.55;;;9.20;;
67090;SDS011;54007;55.818;49.058;2023-11-19T18:56:27;62.23;;;10.00;;
67090;SDS011;54007;55.818;49.058;2023-11-19T18:58:52;49.10;;;10.73;;
67090;SDS011;54007;55.818;49.058;2023-11-19T19:01:18;61.90;;;10.90;;
67090;SDS011;54007;55.818;49.058;2023-11-19T19:03:53;48.37;;;11.67;;
67090;SDS011;54007;55.818;49.058;2023-11-19T19:06:21;49.45;;;12.53;;
67090;SDS011;54007;55.818;49.058;2023-11-19T19:08:47;66.87;;;13.45;;
67090;SDS011;54007;55.818;49.058;2023-11-19T19:11:13;62.57;;;13.30;;
67090;SDS011;54007;55.818;49.058;2023-11-19T19:13:38;61.90;;;11.90;;
67090;SDS011;54007;55.818;49.058;2023-11-19T19:16:07;59.38;;;14.75;;
67090;SDS011;54007;55.818;49.058;2023-11-19T19:18:33;60.25;;;16.75;;
67090;SDS011;54007;55.818;49.058;2023-11-19T19:20:59;55.28;;;13.98;;
67090;SDS011;54007;55.818;49.058;2023-11-19T19:23:25;63.92;;;13.15;;
67090;SDS011;54007;55.818;49.058;2023-11-19T19:25:51;75.42;;;14.03;;
67090;SDS011;54007;55.818;49.058;2023-11-19T19:28:17;62.10;;;13.50;;
67090;SDS011;54007;55.818;49.058;2023-11-19T19:30:42;60.03;;;12.27;;
67090;SDS011;54007;55.818;49.058;2023-11-19T19:33:08;83.65;;;13.10;;
67090;SDS011;54007;55.818;49.058;2023-11-19T19:35:34;67.22;;;12.15;;
67090;SDS011;54007;55.818;49.058;2023-11-19T19:38:00;50.80;;;10.73;;
67090;SDS011;54007;55.818;49.058;2023-11-19T19:40:26;48.75;;;11.55;;
67090;SDS011;54007;55.818;49.058;2023-11-19T19:42:52;46.77;;;11.77;;
67090;SDS011;54007;55.818;49.058;2023-11-19T19:45:18;48.68;;;10.75;;
67090;SDS011;54007;55.818;49.058;2023-11-19T19:47:43;51.30;;;10.95;;
67090;SDS011;54007;55.818;49.058;2023-11-19T19:50:09;56.23;;;11.40;;
67090;SDS011;54007;55.818;49.058;2023-11-19T19:52:41;47.90;;;11.22;;
67090;SDS011;54007;55.818;49.058;2023-11-19T19:55:11;53.00;;;10.08;;
67090;SDS011;54007;55.818;49.058;2023-11-19T19:57:43;38.77;;;8.83;;
67090;SDS011;54007;55.818;49.058;2023-11-19T20:00:15;48.33;;;9.90;;
67090;SDS011;54007;55.818;49.058;2023-11-19T20:02:41;40.67;;;9.13;;
67090;SDS011;54007;55.818;49.058;2023-11-19T20:05:07;57.63;;;9.20;;
67090;SDS011;54007;55.818;49.058;2023-11-19T20:07:41;40.33;;;9.75;;
67090;SDS011;54007;55.818;49.058;2023-11-19T20:10:07;52.27;;;10.90;;
67090;SDS011;54007;55.818;49.058;2023-11-19T20:12:33;58.40;;;10.47;;
67090;SDS011;54007;55.818;49.058;2023-11-19T20:14:59;52.35;;;11.12;;
67090;SDS011;54007;55.818;49.058;2023-11-19T20:17:27;36.45;;;10.45;;
67090;SDS011;54007;55.818;49.058;2023-11-19T20:19:53;66.83;;;11.70;;
67090;SDS011;54007;55.818;49.058;2023-11-19T20:22:19;36.55;;;9.48;;
67090;SDS011;54007;55.818;49.058;2023-11-19T20:24:45;41.10;;;9.00;;
67090;SDS011;54007;55.818;49.058;2023-11-19T20:27:10;29.30;;;8.45;;
67090;SDS011;54007;55.818;49.058;2023-11-19T20:29:36;30.90;;;8.63;;
67090;SDS011;54007;55.818;49.058;2023-11-19T20:32:02;24.10;;;8.27;;
67090;SDS011;54007;55.818;49.058;2023-11-19T20:34:28;31.60;;;8.90;;
67090;SDS011;54007;55.818;49.058;2023-11-19T20:36:54;38.63;;;9.35;;
67090;SDS011;54007;55.818;49.058;2023-11-19T20:39:20;37.23;;;9.98;;
67090;SDS011;54007;55.818;49.058;2023-11-19T20:41:48;34.35;;;9.78;;
67090;SDS011;54007;55.818;49.058;2023-11-19T20:44:11;39.10;;;11.10;;
67090;SDS011;54007;55.818;49.058;2023-11-19T20:46:37;39.88;;;11.18;;
67090;SDS011;54007;55.818;49.058;2023-11-19T20:49:03;33.70;;;10.05;;
